Time;durP1;ratioP1;P1;durP2;ratioP2;P2;SDS_P1;SDS_P2;PMS_P1;PMS_P2;Temp;Humidity;BMP_temperature;BMP_pressure;BME280_temperature;BME280_humidity;BME280_pressure;Samples;Min_cycle;Max_cycle;Signal;HPM_P1;HPM_P2
2022/06/21 00:01:19;;;;;;;6.38;1.13;;;;;;;17.70;69.35;101335.66;7384337;19;20011;-77
2022/06/21 00:03:50;;;;;;;10.38;1.58;;;;;;;17.68;69.80;101335.00;7382851;19;20003;-78
2022/06/21 00:06:25;;;;;;;9.38;1.45;;;;;;;17.65;69.60;101333.56;7381400;19;20786;-77
2022/06/21 00:08:52;;;;;;;8.68;1.40;;;;;;;17.59;69.69;101334.31;7383409;19;20014;-77
2022/06/21 00:11:32;;;;;;;7.93;1.48;;;;;;;17.59;70.06;101334.31;7385275;19;20296;-77
2022/06/21 00:14:00;;;;;;;7.45;1.15;;;;;;;17.61;69.49;101329.63;7384358;19;20051;-78
2022/06/21 00:16:30;;;;;;;8.10;1.25;;;;;;;17.60;69.65;101327.16;7383095;19;20018;-77
2022/06/21 00:18:57;;;;;;;8.73;1.80;;;;;;;17.57;70.07;101327.50;7385364;19;20070;-78
2022/06/21 00:21:43;;;;;;;11.25;1.45;;;;;;;17.56;70.03;101336.50;7382690;19;20158;-78
2022/06/21 00:24:10;;;;;;;11.55;1.58;;;;;;;17.50;70.02;101327.41;7384696;19;20396;-77
2022/06/21 00:26:37;;;;;;;9.25;2.08;;;;;;;17.46;70.49;101329.63;7385188;19;20490;-77
2022/06/21 00:29:04;;;;;;;9.57;1.70;;;;;;;17.42;70.55;101328.31;7385900;19;20025;-78
2022/06/21 00:31:33;;;;;;;4.93;1.23;;;;;;;17.38;70.94;101323.56;7383691;19;20015;-77
2022/06/21 00:34:05;;;;;;;12.40;1.92;;;;;;;17.36;72.33;101314.94;7386050;19;20026;-78
2022/06/21 00:36:34;;;;;;;6.03;1.87;;;;;;;17.35;71.79;101314.13;7380941;19;20014;-78
2022/06/21 00:39:04;;;;;;;6.38;0.95;;;;;;;17.35;71.28;101311.47;7383575;19;20062;-77
2022/06/21 00:41:52;;;;;;;9.23;1.50;;;;;;;17.33;70.98;101305.50;7385994;19;20013;-76
2022/06/21 00:44:56;;;;;;;6.22;1.27;;;;;;;17.28;71.25;101310.53;7386486;19;20535;-77
2022/06/21 00:47:28;;;;;;;7.60;1.98;;;;;;;17.21;71.33;101291.03;7384057;19;20002;-78
2022/06/21 00:50:23;;;;;;;12.43;1.83;;;;;;;17.20;72.62;101275.25;7384258;19;20017;-78
2022/06/21 00:53:20;;;;;;;6.13;1.77;;;;;;;17.19;72.11;101261.13;7382475;19;20082;-77
2022/06/21 00:56:08;;;;;;;11.73;1.27;;;;;;;17.17;71.89;101249.81;7383171;19;20010;-78
2022/06/21 00:58:35;;;;;;;13.00;1.42;;;;;;;17.16;71.72;101234.91;7384660;19;20029;-77
2022/06/21 01:01:03;;;;;;;7.80;1.20;;;;;;;17.12;71.82;101233.59;7386490;19;20448;-77
2022/06/21 01:03:34;;;;;;;14.07;2.50;;;;;;;17.09;71.89;101245.44;7386427;19;20069;-77
2022/06/21 01:06:28;;;;;;;12.20;2.13;;;;;;;17.10;71.93;101243.63;7384455;19;20077;-76
2022/06/21 01:09:01;;;;;;;10.77;1.20;;;;;;;17.12;71.72;101246.91;7381285;19;20007;-77
2022/06/21 01:11:38;;;;;;;8.73;1.15;;;;;;;17.11;71.59;101247.94;7386734;19;20025;-77
2022/06/21 01:14:05;;;;;;;9.07;1.05;;;;;;;17.10;71.98;101241.78;7387004;19;20016;-78
2022/06/21 01:16:33;;;;;;;6.32;1.52;;;;;;;17.10;71.81;101238.28;7386998;19;20347;-77
2022/06/21 01:19:02;;;;;;;9.82;1.27;;;;;;;17.12;71.76;101230.16;7383111;19;20145;-78
2022/06/21 01:21:30;;;;;;;5.13;1.00;;;;;;;17.12;72.39;101222.97;7381024;19;20391;-78
2022/06/21 01:24:08;;;;;;;6.93;1.45;;;;;;;17.14;71.95;101225.44;7385188;19;20045;-78
2022/06/21 01:26:44;;;;;;;7.07;1.52;;;;;;;17.11;71.49;101221.34;7386709;19;20027;-77
2022/06/21 01:29:21;;;;;;;4.95;0.90;;;;;;;17.09;71.66;101224.19;7385158;19;20007;-78
2022/06/21 01:31:49;;;;;;;8.48;1.30;;;;;;;17.04;71.65;101215.94;7387333;19;20475;-78
2022/06/21 01:34:20;;;;;;;7.60;1.10;;;;;;;17.04;71.71;101204.47;7383695;19;20411;-78
2022/06/21 01:36:50;;;;;;;7.63;1.27;;;;;;;16.98;71.97;101200.72;7383415;19;20105;-77
2022/06/21 01:39:26;;;;;;;9.68;1.40;;;;;;;16.94;72.29;101204.75;7384578;19;20007;-77
2022/06/21 01:42:16;;;;;;;7.43;1.15;;;;;;;16.93;72.30;101197.78;7384430;19;20113;-77
2022/06/21 01:44:48;;;;;;;8.10;1.10;;;;;;;16.88;72.29;101194.84;7383444;19;20028;-77
2022/06/21 01:47:21;;;;;;;2.83;0.70;;;;;;;16.84;72.60;101195.41;7384051;19;20010;-78
2022/06/21 01:50:03;;;;;;;6.20;1.00;;;;;;;16.81;72.98;101193.94;7383244;19;20023;-79
2022/06/21 01:52:34;;;;;;;9.48;1.15;;;;;;;16.82;72.74;101182.28;7382821;19;20086;-77
2022/06/21 01:55:10;;;;;;;8.13;1.20;;;;;;;16.83;73.12;101186.59;7383519;19;20090;-78
2022/06/21 01:57:38;;;;;;;5.60;1.05;;;;;;;16.79;72.90;101189.81;7383219;19;20033;-77
2022/06/21 02:00:09;;;;;;;9.23;1.38;;;;;;;16.76;72.99;101196.31;7384611;19;20073;-79
2022/06/21 02:02:46;;;;;;;6.00;0.93;;;;;;;16.80;72.70;101199.44;7384267;19;20444;-77
2022/06/21 02:05:25;;;;;;;4.05;1.02;;;;;;;16.77;72.48;101203.28;7383696;19;20524;-77
2022/06/21 02:07:58;;;;;;;8.07;1.10;;;;;;;16.79;72.60;101192.47;7389356;19;20010;-78
2022/06/21 02:10:34;;;;;;;4.43;0.93;;;;;;;16.80;72.54;101199.44;7390569;19;20026;-78
2022/06/21 02:13:07;;;;;;;4.15;1.00;;;;;;;16.80;72.28;101192.31;7392038;19;20050;-78
2022/06/21 02:15:36;;;;;;;7.35;1.23;;;;;;;16.80;72.35;101187.00;7392321;19;20543;-78
2022/06/21 02:18:08;;;;;;;6.95;1.00;;;;;;;16.78;72.63;101188.16;7393064;19;20035;-77
2022/06/21 02:20:44;;;;;;;12.82;1.77;;;;;;;16.76;72.62;101201.63;7390549;19;20099;-79
2022/06/21 02:23:14;;;;;;;6.65;1.00;;;;;;;16.76;72.57;101196.31;7388366;19;20003;-78
2022/06/21 02:25:42;;;;;;;12.63;2.22;;;;;;;16.75;74.09;101194.69;7390299;19;20102;-77
2022/06/21 02:28:12;;;;;;;5.47;1.23;;;;;;;16.74;73.66;101187.72;7389111;19;20086;-77
2022/06/21 02:30:41;;;;;;;8.43;1.20;;;;;;;16.77;73.26;101189.16;7392222;19;20018;-78
2022/06/21 02:33:14;;;;;;;6.88;1.33;;;;;;;16.79;72.90;101189.81;7391599;19;20050;-78
2022/06/21 02:36:05;;;;;;;11.02;1.30;;;;;;;16.75;72.90;101173.44;7392125;19;20006;-77
2022/06/21 02:38:37;;;;;;;4.80;1.10;;;;;;;16.72;72.82;101167.63;7387534;19;20692;-78
2022/06/21 02:41:12;;;;;;;12.65;4.43;;;;;;;16.68;73.88;101164.53;7391208;19;20114;-78
2022/06/21 02:43:43;;;;;;;8.88;2.25;;;;;;;16.63;73.77;101157.13;7388381;19;20521;-77
2022/06/21 02:46:23;;;;;;;9.10;0.90;;;;;;;16.63;73.25;101157.13;7386984;19;20240;-78
2022/06/21 02:49:14;;;;;;;6.07;1.20;;;;;;;16.62;73.39;101149.31;7388498;19;20020;-77
2022/06/21 02:51:53;;;;;;;8.13;1.23;;;;;;;16.57;73.31;101151.66;7387932;19;20021;-77
2022/06/21 02:54:47;;;;;;;7.97;1.13;;;;;;;16.54;73.44;101152.88;7389310;19;20106;-77
2022/06/21 02:57:22;;;;;;;14.88;1.80;;;;;;;16.49;73.99;101136.66;7387673;19;20455;-77
2022/06/21 02:59:51;;;;;;;8.50;1.38;;;;;;;16.48;74.85;101139.50;7391327;19;20033;-77
2022/06/21 03:02:22;;;;;;;7.07;1.42;;;;;;;16.43;73.95;101144.53;7391133;19;20010;-77
2022/06/21 03:04:55;;;;;;;5.43;1.00;;;;;;;16.36;73.85;101144.44;7390497;19;20047;-78
2022/06/21 03:07:53;;;;;;;6.93;1.10;;;;;;;16.29;74.08;101140.03;7382189;19;20023;-76
2022/06/21 03:10:28;;;;;;;5.50;1.17;;;;;;;16.30;73.99;101134.56;7385994;19;20364;-77
2022/06/21 03:13:07;;;;;;;7.28;2.60;;;;;;;16.29;75.03;101134.72;7389237;19;20328;-77
2022/06/21 03:15:35;;;;;;;9.63;1.48;;;;;;;16.30;74.88;101142.53;7388109;19;20010;-76
2022/06/21 03:18:08;;;;;;;4.57;0.90;;;;;;;16.27;74.31;101142.88;7386589;19;20017;-77
2022/06/21 03:20:36;;;;;;;7.55;1.20;;;;;;;16.23;74.50;101146.91;7388429;19;20093;-77
2022/06/21 03:23:05;;;;;;;8.52;1.58;;;;;;;16.20;74.29;101134.81;7387166;19;20014;-76
2022/06/21 03:25:38;;;;;;;8.00;1.08;;;;;;;16.18;74.27;101141.31;7387056;19;20017;-77
2022/06/21 03:28:33;;;;;;;9.23;1.33;;;;;;;16.14;74.06;101135.56;7387298;19;20331;-77
2022/06/21 03:31:28;;;;;;;6.28;1.42;;;;;;;16.13;74.34;101138.38;7388466;19;20454;-77
2022/06/21 03:34:07;;;;;;;6.60;1.30;;;;;;;16.13;74.41;101139.22;7386574;19;20010;-78
2022/06/21 03:36:35;;;;;;;9.60;1.15;;;;;;;16.12;74.78;101144.69;7385263;19;20016;-78
2022/06/21 03:39:12;;;;;;;5.68;1.10;;;;;;;16.10;74.57;101131.59;7385441;19;20444;-78
2022/06/21 03:41:44;;;;;;;5.20;1.27;;;;;;;16.12;74.46;101128.75;7388592;19;20016;-77
2022/06/21 03:44:17;;;;;;;4.85;1.33;;;;;;;16.13;74.41;101128.59;7387216;19;20017;-77
2022/06/21 03:47:11;;;;;;;8.00;1.48;;;;;;;16.13;74.46;101127.75;7387811;19;20503;-77
2022/06/21 03:50:07;;;;;;;5.20;1.00;;;;;;;16.16;74.23;101120.25;7384710;19;20031;-76
2022/06/21 03:52:44;;;;;;;8.27;1.10;;;;;;;16.17;74.09;101124.56;7384894;19;20353;-77
2022/06/21 03:55:20;;;;;;;9.02;1.58;;;;;;;16.17;74.07;101121.91;7387652;19;20017;-78
2022/06/21 03:58:02;;;;;;;6.90;1.65;;;;;;;16.17;73.77;101118.41;7385242;19;20017;-78
2022/06/21 04:00:38;;;;;;;6.65;1.50;;;;;;;16.17;73.69;101121.06;7386848;19;20097;-77
2022/06/21 04:03:12;;;;;;;6.63;1.00;;;;;;;16.12;73.63;101129.59;7386322;19;20034;-77
2022/06/21 04:05:48;;;;;;;8.68;1.65;;;;;;;16.13;73.80;101130.41;7385264;19;20041;-78
2022/06/21 04:08:22;;;;;;;7.10;1.17;;;;;;;16.11;73.36;101122.63;7384740;19;20018;-78
2022/06/21 04:11:16;;;;;;;4.18;1.17;;;;;;;16.09;73.29;101129.13;7386712;19;20505;-78
2022/06/21 04:14:11;;;;;;;9.57;1.45;;;;;;;16.07;73.40;101128.47;7386175;19;20066;-78
2022/06/21 04:16:51;;;;;;;6.80;1.75;;;;;;;16.05;73.93;101130.50;7386705;19;20014;-78
2022/06/21 04:19:24;;;;;;;8.10;1.42;;;;;;;16.05;74.36;101127.84;7386547;19;20448;-78
2022/06/21 04:22:03;;;;;;;7.75;2.03;;;;;;;16.02;73.53;101139.63;7387030;19;20013;-78
2022/06/21 04:24:35;;;;;;;8.40;2.25;;;;;;;16.01;73.49;101137.97;7386908;19;20007;-76
2022/06/21 04:27:02;;;;;;;5.38;0.95;;;;;;;15.95;73.11;101141.34;7382863;19;20077;-76
2022/06/21 04:29:58;;;;;;;12.23;1.73;;;;;;;15.95;72.92;101136.03;7387103;19;20006;-77
2022/06/21 04:32:59;;;;;;;4.88;1.05;;;;;;;15.95;72.80;101143.22;7380678;19;20265;-77
2022/06/21 04:35:36;;;;;;;6.85;1.00;;;;;;;15.99;72.58;101147.16;7385003;19;20472;-77
2022/06/21 04:38:09;;;;;;;5.00;0.90;;;;;;;16.00;71.98;101144.28;7382519;19;20519;-78
2022/06/21 04:40:52;;;;;;;7.50;0.88;;;;;;;16.01;71.75;101150.44;7384854;19;20010;-78
2022/06/21 04:43:34;;;;;;;5.97;1.00;;;;;;;16.00;72.00;101152.25;7386001;19;20040;-78
2022/06/21 04:46:05;;;;;;;6.75;1.15;;;;;;;16.00;71.66;101159.44;7384531;19;20018;-77
2022/06/21 04:48:44;;;;;;;7.38;0.90;;;;;;;15.96;71.87;101155.44;7386383;19;20014;-77
2022/06/21 04:51:36;;;;;;;7.20;1.33;;;;;;;15.98;71.83;101143.66;7385766;19;20045;-77
2022/06/21 04:54:10;;;;;;;8.70;1.38;;;;;;;16.01;71.91;101153.09;7382096;19;20010;-78
2022/06/21 04:56:49;;;;;;;6.05;1.50;;;;;;;16.04;72.61;101160.72;7386128;19;20022;-78
2022/06/21 04:59:26;;;;;;;9.55;1.40;;;;;;;16.05;73.00;101149.88;7384946;19;20011;-78
2022/06/21 05:01:54;;;;;;;8.95;1.95;;;;;;;16.06;73.46;101151.53;7387679;19;20077;-77
2022/06/21 05:04:28;;;;;;;8.52;1.45;;;;;;;16.03;73.57;101149.25;7386746;19;20318;-78
2022/06/21 05:06:58;;;;;;;8.05;1.88;;;;;;;16.04;73.69;101156.22;7382509;19;20456;-77
2022/06/21 05:09:30;;;;;;;8.50;1.52;;;;;;;16.03;73.73;101151.09;7385088;19;20021;-78
2022/06/21 05:12:12;;;;;;;9.18;2.05;;;;;;;16.05;73.73;101149.09;7383744;19;20296;-77
2022/06/21 05:14:45;;;;;;;11.67;1.70;;;;;;;16.07;73.48;101147.06;7383148;19;20021;-77
2022/06/21 05:17:16;;;;;;;11.05;1.42;;;;;;;16.07;73.52;101149.72;7384895;19;20014;-77
2022/06/21 05:20:05;;;;;;;6.82;1.35;;;;;;;16.10;73.49;101154.69;7381952;19;20014;-76
2022/06/21 05:22:37;;;;;;;7.82;1.42;;;;;;;16.12;72.73;101153.47;7383187;19;20015;-77
2022/06/21 05:25:17;;;;;;;8.52;1.48;;;;;;;16.13;72.22;101155.13;7386339;19;20030;-78
2022/06/21 05:27:52;;;;;;;4.25;0.85;;;;;;;16.16;72.16;101149.44;7383957;19;20010;-77
2022/06/21 05:30:34;;;;;;;7.20;1.40;;;;;;;16.19;71.98;101150.94;7385685;19;20086;-78
2022/06/21 05:33:08;;;;;;;7.23;1.90;;;;;;;16.23;71.90;101147.72;7385418;19;20011;-76
2022/06/21 05:35:36;;;;;;;8.75;1.35;;;;;;;16.26;71.51;101138.56;7383533;19;20006;-77
2022/06/21 05:38:06;;;;;;;6.28;1.52;;;;;;;16.32;71.60;101148.47;7380209;19;20014;-77
2022/06/21 05:40:43;;;;;;;6.03;1.63;;;;;;;16.34;71.82;101149.13;7382236;19;20101;-77
2022/06/21 05:43:18;;;;;;;9.73;1.80;;;;;;;16.35;71.42;101153.44;7383218;19;20018;-77
2022/06/21 05:46:16;;;;;;;13.10;1.98;;;;;;;16.30;70.60;101158.47;7385226;19;20089;-78
2022/06/21 05:48:44;;;;;;;9.50;2.05;;;;;;;16.24;71.39;101159.19;7384173;19;20006;-77
2022/06/21 05:51:19;;;;;;;8.68;1.83;;;;;;;16.24;71.52;101157.34;7381328;19;20834;-78
2022/06/21 05:54:02;;;;;;;6.15;1.40;;;;;;;16.24;72.50;101157.34;7384066;19;20013;-76
2022/06/21 05:56:31;;;;;;;7.65;1.90;;;;;;;16.29;71.74;101153.31;7384420;19;20019;-78
2022/06/21 05:59:02;;;;;;;7.70;1.75;;;;;;;16.30;71.30;101155.81;7383166;19;20010;-78
2022/06/21 06:01:43;;;;;;;5.38;1.90;;;;;;;16.34;70.53;101165.06;7383291;19;20494;-77
2022/06/21 06:04:28;;;;;;;8.60;1.30;;;;;;;16.34;70.16;101158.91;7383434;19;20099;-77
2022/06/21 06:06:57;;;;;;;7.38;1.50;;;;;;;16.36;70.58;101167.50;7379184;19;20455;-78
2022/06/21 06:09:31;;;;;;;4.63;1.30;;;;;;;16.36;70.53;101164.84;7383391;19;20017;-77
2022/06/21 06:12:13;;;;;;;7.97;1.73;;;;;;;16.43;71.30;101171.09;7383787;19;20178;-76
2022/06/21 06:14:54;;;;;;;4.93;1.00;;;;;;;16.46;70.66;101170.72;7384443;19;20443;-77
2022/06/21 06:17:40;;;;;;;5.78;1.15;;;;;;;16.49;70.86;101173.03;7383079;19;20010;-77
2022/06/21 06:20:30;;;;;;;6.95;1.05;;;;;;;16.55;70.66;101170.47;7384583;19;20014;-77
2022/06/21 06:23:19;;;;;;;10.35;1.75;;;;;;;16.62;69.99;101165.25;7379517;19;20359;-76
2022/06/21 06:25:57;;;;;;;6.80;2.10;;;;;;;16.63;70.30;101157.13;7383700;19;20021;-78
2022/06/21 06:28:33;;;;;;;10.30;1.98;;;;;;;16.70;70.56;101165.19;7381836;19;20028;-78
2022/06/21 06:31:20;;;;;;;7.70;1.70;;;;;;;16.77;70.04;101162.59;7383770;19;20018;-78
2022/06/21 06:33:52;;;;;;;7.85;1.67;;;;;;;16.81;69.80;101148.75;7382149;19;20044;-77
2022/06/21 06:36:24;;;;;;;8.40;2.05;;;;;;;16.86;69.52;101150.88;7379413;19;20010;-78
2022/06/21 06:38:52;;;;;;;10.93;1.50;;;;;;;16.91;68.82;101157.28;7382255;19;20035;-78
2022/06/21 06:41:26;;;;;;;5.22;1.27;;;;;;;16.88;68.25;101154.16;7384272;19;20017;-78
2022/06/21 06:44:01;;;;;;;7.57;2.13;;;;;;;16.88;68.30;101162.94;7383877;19;20155;-78
2022/06/21 06:46:33;;;;;;;10.35;1.40;;;;;;;16.89;68.36;101148.66;7383605;19;20517;-78
2022/06/21 06:49:31;;;;;;;13.93;1.52;;;;;;;16.90;67.98;101150.31;7381220;19;20039;-77
2022/06/21 06:52:14;;;;;;;15.73;5.57;;;;;;;16.99;67.80;101153.69;7385305;19;20046;-78
2022/06/21 06:55:11;;;;;;;13.45;2.33;;;;;;;17.03;67.15;101158.44;7388918;19;20007;-77
2022/06/21 06:57:57;;;;;;;6.68;1.40;;;;;;;17.01;67.71;101160.47;7389116;19;20006;-79
2022/06/21 07:00:31;;;;;;;9.93;1.73;;;;;;;17.02;67.27;101155.94;7391181;19;20002;-80
2022/06/21 07:03:15;;;;;;;8.43;1.30;;;;;;;17.06;66.71;101151.94;7389997;19;20077;-79
2022/06/21 07:06:08;;;;;;;9.93;1.60;;;;;;;17.07;66.73;101149.06;7389836;19;20098;-79
2022/06/21 07:09:01;;;;;;;10.10;1.40;;;;;;;17.09;66.70;101149.72;7388852;19;20489;-78
2022/06/21 07:11:39;;;;;;;5.50;1.42;;;;;;;17.14;66.47;101143.84;7389944;19;20086;-78
2022/06/21 07:14:18;;;;;;;10.00;1.35;;;;;;;17.19;66.53;101138.78;7386713;19;20094;-78
2022/06/21 07:17:07;;;;;;;8.45;1.75;;;;;;;17.25;66.03;101129.22;7388603;19;20083;-79
2022/06/21 07:19:35;;;;;;;12.38;1.42;;;;;;;17.32;65.44;101122.94;7387461;19;20499;-77
2022/06/21 07:22:02;;;;;;;10.25;1.33;;;;;;;17.38;65.87;101129.34;7388759;19;20010;-77
2022/06/21 07:24:28;;;;;;;6.80;1.42;;;;;;;17.43;65.91;101125.09;7388758;19;20488;-77
2022/06/21 07:27:05;;;;;;;6.55;1.40;;;;;;;17.51;65.16;101119.66;7386518;19;20389;-77
2022/06/21 07:29:58;;;;;;;7.28;1.30;;;;;;;17.66;65.23;101135.59;7390103;19;20007;-77
2022/06/21 07:32:31;;;;;;;8.15;1.20;;;;;;;17.76;63.99;101125.44;7390559;19;20073;-76
2022/06/21 07:35:09;;;;;;;7.82;1.60;;;;;;;17.82;62.65;101123.84;7389233;19;20013;-77
2022/06/21 07:37:44;;;;;;;9.15;1.67;;;;;;;17.94;62.33;101127.63;7386891;19;20018;-77
2022/06/21 07:40:32;;;;;;;7.85;1.42;;;;;;;17.98;61.96;101122.75;7388584;19;20086;-77
2022/06/21 07:43:19;;;;;;;5.97;1.10;;;;;;;18.21;61.40;101123.31;7385253;19;20131;-76
2022/06/21 07:45:59;;;;;;;7.82;1.35;;;;;;;18.63;60.48;101122.34;7389264;19;20078;-76
2022/06/21 07:48:48;;;;;;;6.93;1.08;;;;;;;18.97;58.48;101116.09;7387868;19;20037;-76
2022/06/21 07:51:22;;;;;;;8.70;1.17;;;;;;;19.16;56.28;101118.81;7387273;19;20420;-77
2022/06/21 07:54:11;;;;;;;6.88;0.82;;;;;;;19.00;57.36;101115.69;7385523;19;20130;-77
2022/06/21 07:56:48;;;;;;;3.60;0.80;;;;;;;18.87;57.93;101113.00;7387968;19;20074;-77
2022/06/21 07:59:43;;;;;;;6.25;1.00;;;;;;;18.74;58.31;101111.13;7385130;19;20011;-78
2022/06/21 08:08:33;;;;;;;5.65;0.98;;;;;;;18.63;54.86;101101.03;7387773;19;20043;-77
2022/06/21 08:11:40;;;;;;;4.30;0.70;;;;;;;18.61;55.30;101100.38;7385870;19;20047;-76
2022/06/21 08:14:09;;;;;;;5.20;0.75;;;;;;;18.59;54.59;101089.91;7386666;19;20014;-77
2022/06/21 08:16:52;;;;;;;5.38;0.90;;;;;;;18.64;53.96;101086.69;7387924;19;20021;-77
2022/06/21 08:19:37;;;;;;;4.57;0.80;;;;;;;18.63;54.53;101085.03;7384646;19;20023;-76
2022/06/21 08:22:13;;;;;;;5.35;0.65;;;;;;;18.49;53.77;101081.44;7385149;19;20083;-75
2022/06/21 08:24:45;;;;;;;5.80;0.90;;;;;;;18.43;54.69;101078.75;7385936;19;20027;-76
2022/06/21 08:27:17;;;;;;;6.28;0.93;;;;;;;18.40;55.01;101071.97;7385618;19;20006;-77
2022/06/21 08:30:01;;;;;;;2.58;0.80;;;;;;;18.46;55.53;101070.34;7385414;19;20027;-77
2022/06/21 08:32:35;;;;;;;3.97;0.85;;;;;;;18.53;54.81;101069.38;7387223;19;20010;-77
2022/06/21 08:35:15;;;;;;;6.30;0.73;;;;;;;18.66;54.19;101073.94;7385888;19;20010;-77
2022/06/21 08:38:01;;;;;;;3.55;0.70;;;;;;;18.74;54.53;101071.13;7383011;19;20021;-78
2022/06/21 08:40:53;;;;;;;5.63;1.02;;;;;;;18.78;54.17;101070.53;7386359;19;20017;-78
2022/06/21 08:43:38;;;;;;;4.45;0.93;;;;;;;18.82;53.08;101062.94;7386172;19;20007;-77
2022/06/21 08:46:05;;;;;;;7.47;1.00;;;;;;;18.78;53.60;101072.38;7387437;19;20378;-77
2022/06/21 08:48:32;;;;;;;2.05;0.60;;;;;;;18.81;52.44;101063.94;7387467;19;20066;-77
2022/06/21 08:51:27;;;;;;;5.13;1.02;;;;;;;18.84;52.83;101055.56;7382697;19;20014;-77
2022/06/21 08:53:57;;;;;;;2.45;0.95;;;;;;;18.86;52.91;101066.84;7384063;19;20010;-77
2022/06/21 08:56:40;;;;;;;4.85;0.80;;;;;;;18.91;51.88;101058.22;7387381;19;20545;-77
2022/06/21 08:59:37;;;;;;;3.67;0.63;;;;;;;18.96;52.00;101059.28;7385595;19;20078;-77
2022/06/21 09:02:16;;;;;;;3.40;0.68;;;;;;;18.98;51.90;101054.56;7384447;19;20496;-77
2022/06/21 09:05:07;;;;;;;3.92;0.82;;;;;;;19.03;51.49;101046.78;7385159;19;20030;-76
2022/06/21 09:08:00;;;;;;;7.90;1.00;;;;;;;19.12;51.46;101048.22;7383720;19;20122;-77
2022/06/21 09:10:50;;;;;;;3.90;0.77;;;;;;;19.15;52.07;101046.97;7381657;19;20028;-77
2022/06/21 09:13:54;;;;;;;5.00;0.80;;;;;;;19.27;51.64;101052.53;7382485;19;20393;-76
2022/06/21 09:16:43;;;;;;;5.25;1.20;;;;;;;19.29;51.95;101047.84;7386126;19;20018;-76
2022/06/21 09:19:31;;;;;;;6.13;1.10;;;;;;;19.35;52.21;101036.34;7381909;19;20018;-77
2022/06/21 09:21:58;;;;;;;7.28;1.05;;;;;;;19.43;51.71;101052.16;7343706;19;20086;-79
2022/06/21 09:24:31;;;;;;;8.77;0.80;;;;;;;19.55;50.71;101046.03;7383179;19;20105;-77
2022/06/21 09:27:09;;;;;;;7.15;0.90;;;;;;;19.62;50.49;101046.00;7383081;19;20086;-77
2022/06/21 09:29:48;;;;;;;4.85;0.70;;;;;;;19.70;48.93;101037.81;7383583;19;20086;-77
2022/06/21 09:32:35;;;;;;;4.88;0.70;;;;;;;19.83;48.58;101028.94;7382588;19;20010;-78
2022/06/21 09:35:10;;;;;;;5.88;0.77;;;;;;;19.97;47.96;101038.56;7380373;19;20471;-78
2022/06/21 09:38:00;;;;;;;6.38;0.70;;;;;;;20.11;48.67;101026.00;7381676;19;20340;-78
2022/06/21 09:40:37;;;;;;;6.97;0.70;;;;;;;20.20;49.04;101020.22;7381520;19;20440;-78
2022/06/21 09:43:21;;;;;;;5.72;0.73;;;;;;;20.32;49.63;101025.72;7382332;19;20010;-78
2022/06/21 09:46:05;;;;;;;7.68;0.55;;;;;;;20.40;48.64;101022.84;7380848;19;20170;-77
2022/06/21 09:48:32;;;;;;;2.33;0.60;;;;;;;20.53;48.41;101027.28;7380135;19;20597;-78
2022/06/21 09:51:34;;;;;;;2.95;0.60;;;;;;;20.68;47.00;101017.97;7382355;19;20041;-78
2022/06/21 09:54:46;;;;;;;4.17;0.50;;;;;;;20.82;46.33;101016.88;7383956;19;20024;-77
2022/06/21 09:57:25;;;;;;;3.67;0.60;;;;;;;21.01;45.02;101022.28;7373656;19;20482;-77
2022/06/21 10:00:02;;;;;;;4.20;0.65;;;;;;;21.09;44.61;101014.00;7382082;19;20010;-77
2022/06/21 10:02:38;;;;;;;3.53;0.63;;;;;;;21.14;44.64;101008.84;7382451;19;20480;-77
2022/06/21 10:05:44;;;;;;;2.10;0.60;;;;;;;21.19;44.46;101007.16;7380038;19;20029;-77
2022/06/21 10:08:22;;;;;;;6.22;0.60;;;;;;;21.23;44.73;101000.31;7375581;19;20437;-78
2022/06/21 10:11:17;;;;;;;3.38;0.60;;;;;;;21.31;45.03;101007.28;7381132;19;20011;-78
2022/06/21 10:13:47;;;;;;;3.13;0.60;;;;;;;21.41;45.85;101006.78;7379974;19;20017;-77
2022/06/21 10:16:33;;;;;;;5.30;0.60;;;;;;;21.50;46.38;101010.81;7382309;19;20543;-77
2022/06/21 10:19:32;;;;;;;3.90;0.60;;;;;;;21.61;46.84;101013.59;7376910;19;20046;-79
2022/06/21 10:22:26;;;;;;;6.40;0.93;;;;;;;21.65;45.32;101020.13;7377784;19;20455;-78
2022/06/21 10:25:06;;;;;;;4.60;0.90;;;;;;;21.73;44.16;101016.38;7374092;19;20026;-78
2022/06/21 10:27:54;;;;;;;3.17;1.20;;;;;;;21.81;44.27;101016.06;7385867;19;20028;-78
2022/06/21 10:30:45;;;;;;;5.82;0.82;;;;;;;21.85;44.75;101008.41;7392291;19;20006;-78
2022/06/21 10:33:44;;;;;;;6.93;0.60;;;;;;;21.83;44.58;101021.22;7388131;19;20019;-77
2022/06/21 10:36:36;;;;;;;3.00;0.70;;;;;;;21.84;44.00;101012.94;7390336;19;20528;-77
2022/06/21 10:39:18;;;;;;;3.45;0.70;;;;;;;21.85;43.45;101011.91;7391106;19;20141;-77
2022/06/21 10:45:22;;;;;;;3.95;0.80;;;;;;;21.80;45.00;101014.44;7391576;19;20264;-78
2022/06/21 10:48:11;;;;;;;4.03;1.05;;;;;;;21.73;44.56;101011.84;7388855;19;20014;-78
2022/06/21 10:50:59;;;;;;;6.28;0.65;;;;;;;21.74;42.62;101008.09;7387755;19;20017;-78
2022/06/21 10:53:45;;;;;;;5.53;0.80;;;;;;;21.77;43.50;101013.03;7387585;19;20077;-77
2022/06/21 11:03:43;;;;;;;3.70;1.13;;;;;;;21.75;45.40;100999.03;7388556;19;20006;-78
2022/06/21 11:06:41;;;;;;;7.22;0.70;;;;;;;21.88;44.67;100998.06;7388879;19;20743;-77
2022/06/21 11:09:16;;;;;;;7.65;1.02;;;;;;;21.98;44.06;100995.72;7388811;19;20388;-77
2022/06/21 11:11:57;;;;;;;7.03;0.70;;;;;;;22.00;44.26;100998.97;7387924;19;20007;-77
2022/06/21 11:14:46;;;;;;;8.02;1.02;;;;;;;22.01;44.62;101000.63;7388508;19;20086;-78
2022/06/21 11:17:39;;;;;;;4.25;0.80;;;;;;;22.06;44.59;100994.59;7389200;19;20012;-78
2022/06/21 11:20:15;;;;;;;3.55;1.15;;;;;;;22.10;45.19;100993.09;7384933;19;20006;-76
2022/06/21 11:23:12;;;;;;;3.33;0.68;;;;;;;22.09;45.01;100991.47;7385669;19;20114;-77
2022/06/21 11:25:39;;;;;;;5.63;0.88;;;;;;;22.15;44.72;100985.19;7386618;19;20011;-77
2022/06/21 11:28:13;;;;;;;5.90;0.70;;;;;;;22.16;43.99;100987.66;7383558;19;20329;-78
2022/06/21 11:31:05;;;;;;;6.82;0.88;;;;;;;22.23;43.74;100989.44;7388203;19;20015;-79
2022/06/21 11:33:49;;;;;;;4.18;0.60;;;;;;;22.31;43.84;100989.94;7384808;19;20006;-78
2022/06/21 11:36:23;;;;;;;4.82;0.80;;;;;;;22.48;43.53;100993.66;7386576;19;20125;-79
2022/06/21 11:39:22;;;;;;;2.42;0.93;;;;;;;22.44;43.88;100991.66;7385580;19;20010;-78
2022/06/21 11:42:13;;;;;;;5.15;0.80;;;;;;;22.39;44.38;100988.84;7387199;19;20007;-78
2022/06/21 11:45:04;;;;;;;7.25;0.75;;;;;;;22.42;43.45;100986.50;7388472;19;20081;-78
2022/06/21 11:48:04;;;;;;;4.60;0.65;;;;;;;22.46;42.75;100981.50;7388282;19;20022;-77
2022/06/21 11:51:10;;;;;;;4.78;0.70;;;;;;;22.49;43.30;100981.88;7389414;19;20077;-77
2022/06/21 11:54:20;;;;;;;2.78;0.70;;;;;;;22.51;42.83;100987.00;7384866;19;20025;-78
2022/06/21 11:56:56;;;;;;;5.80;0.90;;;;;;;22.46;42.36;100982.31;7388191;19;20541;-78
2022/06/21 11:59:32;;;;;;;5.93;0.80;;;;;;;22.47;42.63;100989.34;7388490;19;20437;-78
2022/06/21 12:02:17;;;;;;;6.57;1.08;;;;;;;22.47;42.05;100986.66;7389625;19;20541;-78
2022/06/21 12:04:54;;;;;;;5.55;0.85;;;;;;;22.47;41.98;100986.66;7386269;19;20010;-78
2022/06/21 12:07:42;;;;;;;6.93;0.90;;;;;;;22.46;41.95;100990.38;7385675;19;20022;-77
2022/06/21 12:10:19;;;;;;;9.73;0.68;;;;;;;22.45;41.84;100986.03;7387890;19;20010;-78
2022/06/21 12:13:03;;;;;;;10.90;1.35;;;;;;;22.49;40.71;100987.25;7385881;19;20466;-78
2022/06/21 12:15:52;;;;;;;9.57;0.80;;;;;;;22.56;39.91;100968.38;7388438;19;20025;-77
2022/06/21 12:18:28;;;;;;;3.28;0.38;;;;;;;22.63;39.09;100974.47;7385662;19;20377;-78
2022/06/21 12:21:12;;;;;;;4.45;0.60;;;;;;;22.69;38.77;100968.19;7387773;19;20022;-77
2022/06/21 12:23:52;;;;;;;1.85;0.43;;;;;;;22.75;37.34;100971.84;7386490;19;20403;-77
2022/06/21 12:26:24;;;;;;;2.63;0.52;;;;;;;22.81;37.45;100965.53;7388143;19;20370;-78
2022/06/21 12:28:54;;;;;;;3.45;0.40;;;;;;;22.85;37.41;100964.06;7385992;19;20017;-77
2022/06/21 12:31:40;;;;;;;2.60;0.30;;;;;;;22.93;37.30;100958.34;7386952;19;20464;-77
2022/06/21 12:34:13;;;;;;;3.55;0.63;;;;;;;22.93;37.66;100969.09;7386596;19;20121;-77
2022/06/21 12:36:51;;;;;;;2.80;0.40;;;;;;;22.94;36.49;100957.31;7384201;19;20093;-78
2022/06/21 12:39:28;;;;;;;3.95;0.45;;;;;;;22.93;36.37;100964.53;7384752;19;20074;-77